Time;durP1;ratioP1;P1;durP2;ratioP2;P2;SDS_P1;SDS_P2;PMS_P1;PMS_P2;Temp;Humidity;BMP_temperature;BMP_pressure;BME280_temperature;BME280_humidity;BME280_pressure;Samples;Min_cycle;Max_cycle;Signal;HPM_P1;HPM_P2
2023/04/22 00:01:31;;;;;;;10.43;9.10;;;10.50;99.90;;;;;;6240516;23;20004;-75
2023/04/22 00:03:57;;;;;;;10.73;9.63;;;10.40;99.90;;;;;;6242917;22;20054;-74
2023/04/22 00:06:22;;;;;;;10.02;9.13;;;10.40;99.90;;;;;;6241671;23;20011;-73
2023/04/22 00:08:48;;;;;;;11.88;9.98;;;10.40;99.90;;;;;;6241951;23;20007;-73
2023/04/22 00:11:14;;;;;;;13.50;10.95;;;10.30;99.90;;;;;;6242232;22;20000;-73
2023/04/22 00:13:39;;;;;;;11.90;9.88;;;10.30;99.90;;;;;;6242339;23;20000;-73
2023/04/22 00:16:05;;;;;;;12.85;9.52;;;10.20;99.90;;;;;;6242447;22;20028;-73
2023/04/22 00:18:34;;;;;;;11.23;10.02;;;10.20;99.90;;;;;;6242007;22;20019;-72
2023/04/22 00:21:00;;;;;;;10.35;9.32;;;10.10;99.90;;;;;;6242319;22;20024;-73
2023/04/22 00:23:26;;;;;;;10.90;9.77;;;10.10;99.90;;;;;;6241530;22;20011;-74
2023/04/22 00:25:51;;;;;;;13.10;9.98;;;10.10;99.90;;;;;;6242054;23;20004;-73
2023/04/22 00:28:17;;;;;;;11.55;10.13;;;10.10;99.90;;;;;;6242385;23;20000;-74
2023/04/22 00:30:42;;;;;;;11.45;9.82;;;10.00;99.90;;;;;;6242147;23;20430;-74
2023/04/22 00:33:08;;;;;;;10.98;9.88;;;10.00;99.90;;;;;;6241966;23;20023;-74
2023/04/22 00:35:34;;;;;;;11.23;9.95;;;10.00;99.90;;;;;;6241826;22;20011;-74
2023/04/22 00:38:00;;;;;;;12.60;10.75;;;10.00;99.90;;;;;;6240263;23;20071;-74
2023/04/22 00:40:25;;;;;;;12.15;10.85;;;10.00;99.90;;;;;;6242008;23;20430;-74
2023/04/22 00:42:51;;;;;;;9.90;8.90;;;9.90;99.90;;;;;;6242145;23;20075;-74
2023/04/22 00:45:20;;;;;;;14.70;11.93;;;9.90;99.90;;;;;;6242043;22;20004;-74
2023/04/22 00:47:47;;;;;;;13.38;11.98;;;9.90;99.90;;;;;;6242182;22;20035;-74
2023/04/22 00:50:14;;;;;;;11.38;10.13;;;9.90;99.90;;;;;;6241920;22;20000;-73
2023/04/22 00:52:39;;;;;;;13.32;11.55;;;9.90;99.90;;;;;;6239891;23;20330;-74
2023/04/22 00:55:05;;;;;;;13.60;12.20;;;9.90;99.90;;;;;;6242171;23;20011;-73
2023/04/22 00:57:32;;;;;;;13.40;12.05;;;9.90;99.90;;;;;;6241712;23;20027;-73
2023/04/22 00:59:58;;;;;;;15.25;12.48;;;9.90;99.90;;;;;;6242224;22;20024;-74
2023/04/22 01:02:24;;;;;;;14.82;13.02;;;9.80;99.90;;;;;;6241919;23;20004;-74
2023/04/22 01:04:49;;;;;;;14.13;12.68;;;9.80;99.90;;;;;;6242329;22;20330;-73
2023/04/22 01:07:15;;;;;;;12.35;11.15;;;9.80;99.90;;;;;;6243664;22;20007;-73
2023/04/22 01:09:40;;;;;;;14.25;11.60;;;9.80;99.90;;;;;;6243797;23;20012;-74
2023/04/22 01:12:06;;;;;;;13.45;11.35;;;9.70;99.90;;;;;;6244081;23;20000;-73
2023/04/22 01:14:33;;;;;;;14.55;13.00;;;9.70;99.90;;;;;;6243416;22;20031;-73
2023/04/22 01:16:59;;;;;;;14.05;11.75;;;9.70;99.90;;;;;;6244353;22;20322;-74
2023/04/22 01:19:25;;;;;;;14.05;12.52;;;9.70;99.90;;;;;;6243168;23;20000;-74
2023/04/22 01:21:51;;;;;;;14.32;11.70;;;9.70;99.90;;;;;;6243835;23;20023;-74
2023/04/22 01:24:17;;;;;;;14.20;12.20;;;9.70;99.90;;;;;;6243436;22;20011;-74
2023/04/22 01:26:42;;;;;;;15.30;13.70;;;9.60;99.90;;;;;;6243613;23;20354;-74
2023/04/22 01:29:08;;;;;;;15.95;12.30;;;9.60;99.90;;;;;;6243770;23;20422;-74
2023/04/22 01:31:34;;;;;;;16.15;13.18;;;9.60;99.90;;;;;;6243319;22;20422;-74
2023/04/22 01:34:00;;;;;;;13.18;11.82;;;9.60;99.90;;;;;;6243123;23;20040;-74
2023/04/22 01:36:26;;;;;;;13.20;11.70;;;9.60;99.90;;;;;;6243218;22;20000;-74
2023/04/22 01:38:52;;;;;;;16.02;12.15;;;9.50;99.90;;;;;;6243607;23;20000;-74
2023/04/22 01:41:18;;;;;;;14.00;11.77;;;9.50;99.90;;;;;;6243329;22;20342;-74
2023/04/22 01:43:44;;;;;;;11.93;10.73;;;9.50;99.90;;;;;;6243501;22;20011;-74
2023/04/22 01:46:10;;;;;;;12.82;11.27;;;9.50;99.90;;;;;;6243131;23;20011;-74
2023/04/22 01:48:37;;;;;;;11.97;10.77;;;9.50;99.90;;;;;;6242552;22;20007;-74
2023/04/22 01:51:02;;;;;;;12.88;11.60;;;9.40;99.90;;;;;;6241658;23;20012;-74
2023/04/22 01:53:28;;;;;;;18.30;14.32;;;9.40;99.90;;;;;;6242305;23;20055;-74
2023/04/22 01:55:54;;;;;;;16.20;14.27;;;9.40;99.90;;;;;;6240758;22;20078;-74
2023/04/22 01:58:19;;;;;;;17.25;13.00;;;9.40;99.90;;;;;;6240902;23;20071;-74
2023/04/22 02:00:46;;;;;;;15.80;13.55;;;9.40;99.90;;;;;;6242220;23;20024;-74
2023/04/22 02:03:12;;;;;;;17.90;14.73;;;9.40;99.90;;;;;;6242309;22;20027;-74
2023/04/22 02:05:39;;;;;;;17.60;14.88;;;9.40;99.90;;;;;;6242664;23;20299;-74
2023/04/22 02:08:05;;;;;;;18.80;14.48;;;9.40;99.90;;;;;;6242973;23;20000;-74
2023/04/22 02:10:31;;;;;;;19.48;15.15;;;9.40;99.90;;;;;;6242382;22;20612;-74
2023/04/22 02:12:56;;;;;;;16.45;14.18;;;9.40;99.90;;;;;;6242988;22;19996;-74
2023/04/22 02:15:22;;;;;;;19.30;16.03;;;9.40;99.90;;;;;;6242218;22;19999;-74
2023/04/22 02:17:48;;;;;;;21.17;18.90;;;9.40;99.90;;;;;;6241772;23;20000;-74
2023/04/22 02:20:13;;;;;;;22.00;18.58;;;9.40;99.90;;;;;;6242466;23;20004;-74
2023/04/22 02:22:40;;;;;;;18.95;16.95;;;9.50;99.90;;;;;;6242402;23;20000;-74
2023/04/22 02:25:07;;;;;;;18.25;16.35;;;9.50;99.90;;;;;;6242672;22;20057;-74
2023/04/22 02:27:33;;;;;;;21.02;18.10;;;9.50;99.90;;;;;;6242040;22;20008;-73
2023/04/22 02:29:58;;;;;;;20.30;18.05;;;9.60;99.90;;;;;;6242563;23;20001;-74
2023/04/22 02:32:24;;;;;;;20.15;17.75;;;9.60;99.90;;;;;;6241461;23;20481;-74
2023/04/22 02:34:50;;;;;;;17.80;15.77;;;9.60;99.90;;;;;;6242505;23;20498;-74
2023/04/22 02:37:16;;;;;;;22.83;19.80;;;9.60;99.90;;;;;;6242368;22;20001;-74
2023/04/22 02:39:41;;;;;;;24.83;21.67;;;9.60;99.90;;;;;;6240772;23;20004;-74
2023/04/22 02:42:07;;;;;;;24.20;20.42;;;9.60;99.90;;;;;;6242610;23;20556;-74
2023/04/22 02:44:32;;;;;;;25.30;21.80;;;9.60;99.90;;;;;;6242054;23;20000;-74
2023/04/22 02:46:58;;;;;;;22.52;20.10;;;9.60;99.90;;;;;;6242052;23;20008;-74
2023/04/22 02:49:23;;;;;;;29.02;23.08;;;9.70;99.90;;;;;;6242186;23;20422;-74
2023/04/22 02:51:49;;;;;;;34.20;25.75;;;9.70;99.90;;;;;;6242268;23;20079;-74
2023/04/22 02:54:15;;;;;;;32.07;26.30;;;9.70;99.90;;;;;;6241785;22;20000;-74
2023/04/22 02:56:40;;;;;;;30.33;24.55;;;9.70;99.90;;;;;;6240972;23;20081;-73
2023/04/22 02:59:06;;;;;;;25.95;22.63;;;9.70;99.90;;;;;;6239607;23;20011;-74
2023/04/22 03:01:31;;;;;;;28.60;24.15;;;9.80;99.90;;;;;;6239178;23;19996;-74
2023/04/22 03:03:57;;;;;;;30.85;25.45;;;9.80;99.90;;;;;;6238356;23;20008;-74
2023/04/22 03:06:22;;;;;;;29.38;24.10;;;9.80;99.90;;;;;;6239742;23;20008;-74
2023/04/22 03:08:48;;;;;;;26.67;22.30;;;9.80;99.90;;;;;;6239952;23;20042;-74
2023/04/22 03:11:13;;;;;;;28.40;23.23;;;9.90;99.90;;;;;;6240058;23;20010;-74
2023/04/22 03:13:39;;;;;;;26.23;22.08;;;9.90;99.90;;;;;;6242094;23;20306;-74
2023/04/22 03:16:05;;;;;;;24.45;21.70;;;9.90;99.90;;;;;;6241745;22;20390;-74
2023/04/22 03:18:30;;;;;;;26.75;23.52;;;9.90;99.90;;;;;;6242185;22;20058;-74
2023/04/22 03:20:56;;;;;;;26.33;23.15;;;9.90;99.90;;;;;;6240357;23;20019;-74
2023/04/22 03:23:21;;;;;;;30.25;26.20;;;9.90;99.90;;;;;;6241752;23;20099;-73
2023/04/22 03:25:47;;;;;;;32.67;25.40;;;9.90;99.90;;;;;;6241874;23;20001;-73
2023/04/22 03:28:12;;;;;;;28.60;25.08;;;9.90;99.90;;;;;;6239834;23;20087;-73
2023/04/22 03:30:38;;;;;;;29.50;24.88;;;9.90;99.90;;;;;;6241182;23;20011;-73
2023/04/22 03:33:04;;;;;;;30.15;25.38;;;9.90;99.90;;;;;;6241786;23;20394;-73
2023/04/22 03:35:29;;;;;;;29.55;25.17;;;9.90;99.90;;;;;;6241905;22;20367;-73
2023/04/22 03:37:55;;;;;;;34.45;28.65;;;9.90;99.90;;;;;;6241683;23;20004;-72
2023/04/22 03:40:21;;;;;;;31.38;27.20;;;9.90;99.90;;;;;;6241630;23;20074;-73
2023/04/22 03:42:46;;;;;;;30.42;26.88;;;9.90;99.90;;;;;;6241722;23;20000;-73
2023/04/22 03:45:12;;;;;;;34.25;27.05;;;9.90;99.90;;;;;;6241216;23;20007;-73
2023/04/22 03:47:37;;;;;;;36.55;29.08;;;9.90;99.90;;;;;;6241561;23;20008;-72
2023/04/22 03:50:03;;;;;;;33.80;29.30;;;9.90;99.90;;;;;;6242021;23;19997;-73
2023/04/22 03:52:29;;;;;;;33.38;27.50;;;9.90;99.90;;;;;;6241429;22;20326;-73
2023/04/22 03:54:54;;;;;;;34.78;29.58;;;10.00;99.90;;;;;;6241762;23;20375;-72
2023/04/22 03:57:20;;;;;;;29.50;26.42;;;10.00;99.90;;;;;;6240049;23;20457;-73
2023/04/22 03:59:45;;;;;;;33.88;30.05;;;9.90;99.90;;;;;;6241027;23;20004;-73
2023/04/22 04:02:11;;;;;;;33.17;29.58;;;9.90;99.90;;;;;;6239966;23;20008;-73
2023/04/22 04:04:36;;;;;;;38.80;30.63;;;9.90;99.90;;;;;;6241734;23;20428;-73
2023/04/22 04:07:02;;;;;;;32.95;29.40;;;9.90;99.90;;;;;;6241737;23;20326;-72
2023/04/22 04:09:27;;;;;;;38.13;30.10;;;9.90;99.90;;;;;;6241692;23;20119;-73
2023/04/22 04:11:53;;;;;;;36.80;29.98;;;9.90;99.90;;;;;;6241647;23;20031;-73
2023/04/22 04:14:18;;;;;;;39.92;32.20;;;9.90;99.90;;;;;;6240854;23;20019;-72
2023/04/22 04:16:44;;;;;;;39.45;32.88;;;9.90;99.90;;;;;;6241557;23;20008;-73
2023/04/22 04:19:10;;;;;;;34.85;30.30;;;9.90;99.90;;;;;;6241914;23;20015;-73
2023/04/22 04:21:36;;;;;;;40.60;31.27;;;9.90;99.90;;;;;;6241388;23;20004;-73
2023/04/22 04:24:03;;;;;;;37.58;31.13;;;9.90;99.90;;;;;;6241865;22;20024;-73
2023/04/22 04:26:28;;;;;;;37.00;30.75;;;10.00;99.90;;;;;;6241459;22;20004;-73
2023/04/22 04:28:54;;;;;;;44.72;33.67;;;9.90;99.90;;;;;;6240834;23;20441;-73
2023/04/22 04:31:20;;;;;;;43.58;36.47;;;10.00;99.90;;;;;;6241523;22;20054;-73
2023/04/22 04:33:46;;;;;;;43.78;36.50;;;10.00;99.90;;;;;;6241236;22;20039;-72
2023/04/22 04:36:12;;;;;;;42.95;33.08;;;9.90;99.90;;;;;;6241286;23;20418;-73
2023/04/22 04:38:38;;;;;;;42.83;35.58;;;10.00;99.90;;;;;;6239936;23;20326;-73
2023/04/22 04:41:03;;;;;;;43.28;34.40;;;10.00;99.90;;;;;;6241950;23;20008;-73
2023/04/22 04:43:29;;;;;;;37.28;31.20;;;9.90;99.90;;;;;;6243071;22;19996;-73
2023/04/22 04:45:55;;;;;;;42.20;34.83;;;10.00;99.90;;;;;;6243535;23;20174;-73
2023/04/22 04:48:23;;;;;;;44.20;37.80;;;10.00;99.90;;;;;;6243581;23;20406;-73
2023/04/22 04:50:52;;;;;;;45.25;35.15;;;10.00;99.90;;;;;;6243451;22;19997;-73
2023/04/22 04:53:21;;;;;;;49.10;37.55;;;10.00;99.90;;;;;;6243399;22;20020;-73
2023/04/22 04:55:47;;;;;;;44.35;35.15;;;10.00;99.90;;;;;;6243355;22;20340;-73
2023/04/22 04:58:12;;;;;;;44.80;34.58;;;10.10;99.90;;;;;;6242772;22;20110;-75
2023/04/22 05:00:38;;;;;;;42.55;34.88;;;10.00;99.90;;;;;;6243368;23;20000;-75
2023/04/22 05:03:03;;;;;;;45.47;37.70;;;10.10;99.90;;;;;;6243048;23;20027;-75
2023/04/22 05:05:29;;;;;;;40.70;34.47;;;10.10;99.90;;;;;;6243357;23;20062;-74
2023/04/22 05:07:55;;;;;;;43.10;35.75;;;10.10;99.90;;;;;;6243196;22;20012;-73
2023/04/22 05:10:20;;;;;;;45.90;36.15;;;10.10;99.90;;;;;;6243096;23;20007;-73
2023/04/22 05:12:46;;;;;;;45.00;36.78;;;10.20;99.90;;;;;;6242775;23;20001;-73
2023/04/22 05:15:15;;;;;;;44.05;34.42;;;10.20;99.90;;;;;;6243128;22;20004;-74
2023/04/22 05:17:40;;;;;;;45.60;37.45;;;10.20;99.90;;;;;;6243065;23;20119;-74
2023/04/22 05:20:06;;;;;;;41.42;35.83;;;10.20;99.90;;;;;;6243332;23;20434;-73
2023/04/22 05:22:34;;;;;;;45.05;36.65;;;10.30;99.90;;;;;;6243103;22;20011;-74
2023/04/22 05:24:59;;;;;;;49.13;38.63;;;10.30;99.90;;;;;;6243149;22;20000;-73
2023/04/22 05:27:25;;;;;;;44.70;39.28;;;10.30;99.90;;;;;;6242385;23;20071;-74
2023/04/22 05:29:50;;;;;;;52.88;42.25;;;10.30;99.90;;;;;;6243057;23;19999;-74
2023/04/22 05:32:16;;;;;;;50.10;38.70;;;10.30;99.90;;;;;;6243009;23;20008;-73
2023/04/22 05:34:41;;;;;;;46.75;39.85;;;10.30;99.90;;;;;;6243008;23;20000;-74
2023/04/22 05:37:08;;;;;;;48.88;38.53;;;10.30;99.90;;;;;;6243318;23;20008;-73
2023/04/22 05:39:34;;;;;;;46.17;38.05;;;10.40;99.90;;;;;;6242967;22;20003;-73
2023/04/22 05:42:00;;;;;;;49.58;40.30;;;10.40;99.90;;;;;;6242781;22;20422;-74
2023/04/22 05:44:26;;;;;;;55.08;40.58;;;10.40;99.90;;;;;;6241256;23;20004;-73
2023/04/22 05:46:51;;;;;;;48.88;39.72;;;10.40;99.90;;;;;;6242873;23;20004;-74
2023/04/22 05:49:17;;;;;;;50.10;39.60;;;10.50;99.90;;;;;;6242840;23;20000;-73
2023/04/22 05:51:42;;;;;;;48.00;38.15;;;10.50;99.90;;;;;;6242874;23;20079;-73
2023/04/22 05:54:08;;;;;;;52.38;44.00;;;10.50;99.90;;;;;;6242937;23;20022;-74
2023/04/22 05:56:33;;;;;;;49.55;39.85;;;10.50;99.90;;;;;;6241956;23;20062;-73
2023/04/22 05:58:59;;;;;;;54.90;42.67;;;10.50;99.90;;;;;;6242971;23;20008;-73
2023/04/22 06:01:24;;;;;;;55.13;44.90;;;10.60;99.90;;;;;;6242846;23;20016;-73
2023/04/22 06:03:50;;;;;;;48.63;41.08;;;10.60;99.90;;;;;;6242833;23;20007;-73
2023/04/22 06:06:16;;;;;;;53.47;41.30;;;10.70;99.90;;;;;;6242637;23;20014;-74
2023/04/22 06:08:42;;;;;;;53.90;41.88;;;10.70;99.90;;;;;;6242601;22;20000;-73
2023/04/22 06:11:07;;;;;;;49.58;40.75;;;10.80;99.90;;;;;;6242406;23;20055;-73
2023/04/22 06:13:33;;;;;;;50.38;41.05;;;10.80;99.90;;;;;;6242591;23;20004;-74
2023/04/22 06:16:00;;;;;;;46.08;40.65;;;10.90;99.90;;;;;;6241352;23;20008;-74
2023/04/22 06:18:25;;;;;;;51.40;42.33;;;10.90;99.90;;;;;;6242889;22;20000;-74
2023/04/22 06:20:51;;;;;;;51.80;41.80;;;11.00;99.90;;;;;;6242735;22;20008;-73
2023/04/22 06:23:16;;;;;;;46.20;38.97;;;11.10;99.90;;;;;;6240945;23;20062;-73
2023/04/22 06:25:42;;;;;;;49.85;41.42;;;11.10;99.90;;;;;;6242064;23;20000;-73
2023/04/22 06:28:08;;;;;;;47.45;39.95;;;11.20;99.90;;;;;;6242573;23;20011;-74
2023/04/22 06:30:34;;;;;;;43.17;37.60;;;11.20;99.90;;;;;;6242419;22;20000;-73
2023/04/22 06:32:59;;;;;;;46.17;38.30;;;11.30;99.90;;;;;;6242409;23;20326;-74
2023/04/22 06:35:25;;;;;;;45.33;38.53;;;11.30;99.90;;;;;;6242481;23;19996;-74
2023/04/22 06:37:51;;;;;;;45.80;39.33;;;11.30;99.90;;;;;;6242064;22;20438;-73
2023/04/22 06:40:16;;;;;;;41.78;37.38;;;11.30;99.90;;;;;;6241696;22;20046;-73
2023/04/22 06:42:42;;;;;;;43.20;37.75;;;11.30;99.90;;;;;;6242479;23;20426;-73
2023/04/22 06:45:11;;;;;;;45.22;39.03;;;11.30;99.90;;;;;;6242251;23;20005;-74
2023/04/22 06:47:40;;;;;;;42.17;37.60;;;11.30;99.90;;;;;;6242324;22;20004;-74
2023/04/22 06:50:07;;;;;;;47.25;39.53;;;11.30;99.90;;;;;;6242556;22;20000;-73
2023/04/22 06:52:33;;;;;;;42.95;37.55;;;11.40;99.90;;;;;;6242171;22;20023;-73
2023/04/22 06:54:59;;;;;;;41.05;36.65;;;11.40;99.90;;;;;;6240323;23;20199;-73
2023/04/22 06:57:25;;;;;;;45.00;37.10;;;11.50;99.90;;;;;;6242028;22;20008;-73
2023/04/22 06:59:50;;;;;;;42.05;36.92;;;11.60;99.90;;;;;;6242411;23;20010;-73
2023/04/22 07:02:16;;;;;;;40.63;36.28;;;11.60;99.90;;;;;;6241885;23;20010;-73
2023/04/22 07:04:41;;;;;;;41.05;36.67;;;11.80;99.90;;;;;;6242485;22;20394;-74
2023/04/22 07:07:07;;;;;;;39.60;34.78;;;11.90;99.90;;;;;;6242047;23;20079;-73
2023/04/22 07:09:34;;;;;;;37.28;33.30;;;12.00;99.90;;;;;;6241501;23;20004;-74
2023/04/22 07:12:00;;;;;;;35.42;31.52;;;12.20;99.90;;;;;;6242190;22;20004;-74
2023/04/22 07:14:26;;;;;;;35.60;31.83;;;12.30;99.90;;;;;;6241976;23;20268;-74
2023/04/22 07:16:52;;;;;;;35.38;30.33;;;12.40;99.90;;;;;;6242111;22;20088;-74
2023/04/22 07:19:17;;;;;;;35.47;31.60;;;12.50;99.90;;;;;;6242075;23;20023;-74
2023/04/22 07:21:43;;;;;;;33.65;29.70;;;12.60;99.90;;;;;;6242009;23;20078;-74
2023/04/22 07:24:10;;;;;;;32.97;29.58;;;12.70;99.90;;;;;;6241596;23;20501;-74
2023/04/22 07:26:37;;;;;;;29.65;26.65;;;12.80;99.90;;;;;;6241888;22;20008;-74
2023/04/22 07:29:02;;;;;;;32.03;28.77;;;13.00;99.90;;;;;;6242224;22;20508;-74
2023/04/22 07:31:28;;;;;;;30.48;27.42;;;13.20;99.90;;;;;;6242104;22;20015;-74
2023/04/22 07:33:53;;;;;;;28.35;25.45;;;13.40;99.90;;;;;;6240064;23;20430;-74
2023/04/22 07:36:19;;;;;;;27.77;25.02;;;13.60;99.90;;;;;;6241313;23;20027;-74
2023/04/22 07:38:45;;;;;;;26.65;23.98;;;13.80;99.90;;;;;;6242148;23;20008;-74
2023/04/22 07:41:10;;;;;;;27.42;24.67;;;13.90;99.90;;;;;;6241844;23;20012;-74
2023/04/22 07:43:36;;;;;;;25.20;22.55;;;14.00;99.90;;;;;;6242133;23;20008;-74
2023/04/22 07:46:02;;;;;;;24.80;22.40;;;14.00;99.90;;;;;;6240209;23;20043;-74
2023/04/22 07:48:27;;;;;;;24.42;21.95;;;14.10;99.90;;;;;;6241978;22;20000;-74
2023/04/22 07:50:53;;;;;;;23.13;20.75;;;14.20;99.90;;;;;;6241191;23;20000;-74
2023/04/22 07:53:19;;;;;;;23.40;21.10;;;14.30;99.90;;;;;;6241712;23;20007;-74
2023/04/22 07:55:45;;;;;;;21.48;19.45;;;14.30;99.90;;;;;;6241714;22;20000;-74
2023/04/22 07:58:10;;;;;;;22.17;20.08;;;14.40;99.90;;;;;;6241803;23;20044;-74
2023/04/22 08:00:36;;;;;;;23.35;19.60;;;14.40;99.90;;;;;;6241743;23;20000;-74
2023/04/22 08:03:02;;;;;;;20.83;18.83;;;14.50;99.90;;;;;;6241807;23;20012;-74
2023/04/22 08:05:28;;;;;;;21.00;18.80;;;14.50;99.90;;;;;;6239648;23;20004;-74
2023/04/22 08:07:53;;;;;;;20.38;18.48;;;14.50;99.90;;;;;;6241816;23;20043;-74
2023/04/22 08:10:19;;;;;;;19.27;17.23;;;14.60;99.90;;;;;;6241744;23;20438;-74
2023/04/22 08:12:45;;;;;;;19.55;17.55;;;14.70;99.90;;;;;;6242040;23;20410;-74
2023/04/22 08:15:11;;;;;;;19.23;17.27;;;14.80;99.90;;;;;;6243130;23;20489;-74
2023/04/22 08:17:36;;;;;;;19.48;16.85;;;14.80;99.90;;;;;;6244245;22;20007;-74
2023/04/22 08:20:03;;;;;;;19.20;17.23;;;14.80;99.90;;;;;;6243440;23;20004;-74
2023/04/22 08:22:28;;;;;;;19.05;17.15;;;15.00;99.90;;;;;;6244109;22;20000;-74
2023/04/22 08:24:54;;;;;;;18.70;16.88;;;15.00;99.90;;;;;;6243916;23;20363;-74
2023/04/22 08:27:22;;;;;;;17.52;15.50;;;15.10;99.90;;;;;;6243660;23;20012;-74
2023/04/22 08:29:48;;;;;;;18.45;16.65;;;15.20;99.90;;;;;;6243808;23;20003;-74
2023/04/22 08:32:14;;;;;;;20.83;18.65;;;15.30;99.90;;;;;;6243017;23;20020;-74
2023/04/22 08:34:40;;;;;;;19.52;17.45;;;15.30;99.90;;;;;;6243398;22;20000;-74
2023/04/22 08:37:06;;;;;;;19.50;17.52;;;15.50;99.90;;;;;;6243994;22;20005;-74
2023/04/22 08:39:32;;;;;;;17.98;16.17;;;15.60;99.90;;;;;;6243625;22;20026;-74
2023/04/22 08:41:58;;;;;;;18.13;16.42;;;15.70;99.90;;;;;;6243717;23;20438;-77
2023/04/22 08:44:24;;;;;;;17.75;16.05;;;15.90;99.90;;;;;;6243528;23;20004;-77
2023/04/22 08:46:50;;;;;;;17.30;15.70;;;15.90;99.90;;;;;;6243365;22;20019;-76
2023/04/22 08:49:17;;;;;;;17.88;16.02;;;16.00;99.90;;;;;;6241228;23;20410;-75
2023/04/22 08:51:43;;;;;;;16.50;14.80;;;16.10;99.90;;;;;;6241930;23;20032;-76
2023/04/22 08:54:10;;;;;;;15.00;13.63;;;16.20;99.90;;;;;;6243712;22;20000;-76
2023/04/22 08:56:39;;;;;;;15.73;14.10;;;16.30;99.90;;;;;;6241902;23;20058;-76
2023/04/22 08:59:05;;;;;;;15.98;14.48;;;16.30;99.90;;;;;;6243525;22;20000;-76
2023/04/22 09:01:31;;;;;;;15.90;14.35;;;16.30;99.90;;;;;;6241705;23;20019;-76
2023/04/22 09:04:02;;;;;;;15.70;14.23;;;16.40;99.90;;;;;;6242954;22;20070;-76
2023/04/22 09:06:29;;;;;;;15.32;13.82;;;16.50;99.90;;;;;;6243499;22;20004;-75
2023/04/22 09:08:55;;;;;;;15.23;13.73;;;16.50;99.90;;;;;;6241582;23;20012;-75
2023/04/22 09:11:21;;;;;;;14.88;13.45;;;16.60;99.90;;;;;;6243383;22;20011;-76
2023/04/22 09:13:46;;;;;;;15.00;13.52;;;16.60;99.90;;;;;;6243590;23;20004;-76
2023/04/22 09:16:12;;;;;;;14.48;13.15;;;16.60;99.90;;;;;;6241893;23;20001;-75
2023/04/22 09:18:44;;;;;;;13.30;12.07;;;16.70;99.90;;;;;;6241678;23;20011;-75
2023/04/22 09:21:10;;;;;;;12.32;11.10;;;16.80;99.90;;;;;;6246624;23;20013;-75
2023/04/22 09:23:50;;;;;;;12.65;11.55;;;16.90;99.90;;;;;;6245898;22;20004;-75
2023/04/22 09:26:22;;;;;;;11.60;10.48;;;17.00;99.90;;;;;;6242865;22;20032;-75
2023/04/22 09:28:49;;;;;;;11.13;9.40;;;17.20;99.90;;;;;;6241910;23;20406;-75
2023/04/22 09:31:15;;;;;;;12.18;9.48;;;17.20;99.90;;;;;;6243068;22;20069;-75
2023/04/22 09:33:48;;;;;;;10.25;9.35;;;17.30;99.90;;;;;;6242849;23;20020;-75
2023/04/22 09:36:13;;;;;;;8.10;7.38;;;17.30;99.90;;;;;;6242947;22;19996;-75
2023/04/22 09:38:39;;;;;;;9.23;8.32;;;17.40;99.90;;;;;;6241614;23;20066;-75
2023/04/22 09:41:11;;;;;;;8.85;7.25;;;17.50;99.90;;;;;;6243287;23;20372;-75
2023/04/22 09:43:37;;;;;;;8.45;7.20;;;17.60;99.90;;;;;;6243200;22;20001;-75
2023/04/22 09:46:02;;;;;;;7.88;7.18;;;17.70;99.90;;;;;;6242976;23;20008;-75
2023/04/22 09:48:29;;;;;;;6.53;5.95;;;17.80;99.90;;;;;;6242704;23;20483;-75
2023/04/22 09:50:54;;;;;;;8.60;7.75;;;17.80;99.90;;;;;;6242691;23;20000;-75
2023/04/22 09:53:20;;;;;;;10.48;9.38;;;17.90;99.90;;;;;;6242461;23;20006;-75
2023/04/22 09:55:50;;;;;;;10.57;9.43;;;18.00;99.90;;;;;;6241212;23;20067;-74
2023/04/22 09:58:18;;;;;;;10.70;9.70;;;18.20;99.90;;;;;;6240311;23;20010;-75
2023/04/22 10:00:47;;;;;;;11.68;9.27;;;18.30;99.90;;;;;;6239723;23;20001;-74
2023/04/22 10:03:13;;;;;;;11.68;10.55;;;18.50;99.90;;;;;;6241935;22;20007;-75
2023/04/22 10:05:40;;;;;;;12.02;10.93;;;18.60;99.90;;;;;;6241244;23;20004;-75
2023/04/22 10:08:07;;;;;;;12.25;10.98;;;18.70;99.90;;;;;;6241022;23;20004;-75
2023/04/22 10:10:33;;;;;;;10.75;9.85;;;18.70;99.90;;;;;;6242619;22;20007;-75
2023/04/22 10:13:00;;;;;;;11.60;10.50;;;18.80;99.90;;;;;;6242861;22;20316;-75
2023/04/22 10:15:31;;;;;;;9.80;8.80;;;18.80;99.90;;;;;;6242558;22;20476;-75
2023/04/22 10:17:58;;;;;;;12.80;11.60;;;18.80;99.90;;;;;;6240498;23;20004;-75
2023/04/22 10:20:27;;;;;;;11.27;10.32;;;18.70;99.90;;;;;;6240928;23;20028;-75
2023/04/22 10:22:53;;;;;;;11.70;10.70;;;18.80;99.90;;;;;;6240872;23;20007;-75
2023/04/22 10:25:24;;;;;;;11.57;10.30;;;18.80;99.90;;;;;;6242603;22;20007;-75
2023/04/22 10:28:10;;;;;;;11.38;10.32;;;18.80;99.90;;;;;;6242745;22;20054;-75
2023/04/22 10:30:37;;;;;;;9.98;9.07;;;18.80;99.90;;;;;;6241771;22;20001;-75
2023/04/22 10:33:22;;;;;;;9.60;8.70;;;18.80;99.90;;;;;;6240762;23;20505;-75
2023/04/22 10:36:20;;;;;;;9.70;8.90;;;19.10;99.90;;;;;;6242450;22;20079;-76
2023/04/22 10:38:48;;;;;;;10.02;9.13;;;19.30;99.90;;;;;;6175111;22;20430;-75
2023/04/22 10:41:15;;;;;;;8.27;7.57;;;19.50;99.90;;;;;;6241373;23;20119;-74
2023/04/22 10:43:45;;;;;;;9.50;8.63;;;19.60;99.90;;;;;;6240407;23;20035;-74
2023/04/22 10:46:30;;;;;;;10.98;9.98;;;19.70;99.90;;;;;;6239191;23;20490;-75
2023/04/22 10:48:56;;;;;;;10.77;9.77;;;19.70;99.90;;;;;;6240559;23;20438;-74
2023/04/22 10:51:58;;;;;;;12.30;9.90;;;19.60;99.90;;;;;;6241197;23;20005;-75
2023/04/22 10:54:27;;;;;;;9.50;8.60;;;19.60;99.90;;;;;;6119391;23;20034;-74
2023/04/22 10:57:06;;;;;;;10.35;9.27;;;19.50;99.90;;;;;;6120069;23;20089;-75
2023/04/22 10:59:34;;;;;;;10.23;9.32;;;19.60;99.90;;;;;;6118795;23;20013;-76
2023/04/22 11:02:06;;;;;;;10.93;10.00;;;19.70;99.90;;;;;;6120057;23;20033;-75
2023/04/22 11:04:32;;;;;;;11.10;10.07;;;19.70;99.90;;;;;;6119904;23;20317;-75
2023/04/22 11:07:25;;;;;;;11.27;10.18;;;19.70;99.90;;;;;;6119935;23;20049;-75
2023/04/22 11:09:57;;;;;;;10.40;9.40;;;19.70;99.90;;;;;;6120038;23;20006;-74
2023/04/22 11:12:37;;;;;;;10.60;9.70;;;19.80;99.90;;;;;;6119619;23;20013;-74
2023/04/22 11:15:12;;;;;;;10.63;9.48;;;19.90;99.90;;;;;;6118955;23;20006;-74
2023/04/22 11:17:41;;;;;;;10.45;9.32;;;20.10;99.90;;;;;;6119465;23;20006;-74
2023/04/22 11:20:07;;;;;;;10.68;9.32;;;20.10;99.90;;;;;;6119632;23;20134;-74
2023/04/22 11:22:41;;;;;;;11.73;10.63;;;20.20;99.90;;;;;;6119405;23;20081;-74
2023/04/22 11:25:10;;;;;;;9.05;8.25;;;20.40;99.90;;;;;;6119752;23;20137;-75
2023/04/22 11:27:37;;;;;;;10.45;9.45;;;20.60;99.90;;;;;;6117772;23;20076;-74
2023/04/22 11:30:02;;;;;;;10.45;9.55;;;20.80;99.50;;;;;;6241193;22;20000;-74
2023/04/22 11:32:28;;;;;;;11.88;9.60;;;21.00;99.10;;;;;;6241152;23;20138;-74
2023/04/22 11:34:54;;;;;;;9.70;8.75;;;21.00;98.80;;;;;;6240300;23;20042;-75
2023/04/22 11:37:20;;;;;;;8.65;7.85;;;21.00;98.60;;;;;;6242155;22;19996;-75
2023/04/22 11:39:46;;;;;;;7.97;7.28;;;21.00;98.50;;;;;;6242482;23;20000;-75
2023/04/22 11:42:14;;;;;;;9.38;8.55;;;21.00;98.40;;;;;;6241113;23;20012;-75
2023/04/22 11:44:43;;;;;;;9.05;8.15;;;20.90;97.80;;;;;;6240663;23;20008;-75
2023/04/22 11:47:10;;;;;;;8.38;7.50;;;20.90;97.50;;;;;;6241848;23;20012;-74
2023/04/22 11:49:35;;;;;;;7.72;6.93;;;20.80;97.40;;;;;;6241673;22;19996;-74
2023/04/22 11:52:01;;;;;;;9.65;6.68;;;20.70;97.30;;;;;;6242344;23;20007;-75
2023/04/22 11:54:34;;;;;;;7.43;6.72;;;20.70;97.20;;;;;;6241754;23;20019;-75
2023/04/22 11:57:04;;;;;;;9.55;7.28;;;20.50;97.10;;;;;;6242046;22;20122;-74
2023/04/22 11:59:29;;;;;;;8.70;7.80;;;20.40;97.10;;;;;;6241285;22;20004;-74
2023/04/22 12:01:55;;;;;;;9.02;8.13;;;20.20;97.10;;;;;;6240081;23;20004;-74
2023/04/22 12:04:21;;;;;;;8.30;7.47;;;20.00;97.30;;;;;;6241664;23;20008;-74
2023/04/22 12:06:47;;;;;;;8.93;8.05;;;19.90;97.30;;;;;;6241634;23;20062;-74
2023/04/22 12:09:12;;;;;;;10.18;8.95;;;19.70;97.40;;;;;;6241669;23;20000;-74
2023/04/22 12:11:38;;;;;;;9.48;7.82;;;19.60;97.70;;;;;;6242052;23;20000;-74
2023/04/22 12:14:05;;;;;;;11.50;9.18;;;19.50;98.20;;;;;;6240519;23;20046;-74
2023/04/22 12:16:40;;;;;;;10.45;9.45;;;19.40;98.70;;;;;;6241833;22;19996;-74
2023/04/22 12:19:05;;;;;;;9.90;9.00;;;19.40;99.80;;;;;;6241891;22;20000;-74
2023/04/22 12:21:31;;;;;;;10.23;9.23;;;19.30;99.90;;;;;;6241954;23;20126;-74
2023/04/22 12:23:59;;;;;;;14.93;9.73;;;19.30;99.90;;;;;;6241579;22;20005;-74
2023/04/22 12:26:26;;;;;;;10.63;9.52;;;19.20;99.90;;;;;;6239431;23;20074;-74
2023/04/22 12:28:52;;;;;;;9.95;9.00;;;19.10;99.90;;;;;;6240198;23;20094;-72
2023/04/22 12:31:18;;;;;;;11.90;10.52;;;19.00;99.90;;;;;;6239927;23;20009;-74